This is the latest recevied weather packets stored in our database for station/object NC4J. If no packets are shown the sender has not sent any weather packets the latest 10 day(s).
| Time | Temp. | Humidity | Pressure | Rain* | Wind** | Luminosity | Snow |
|---|---|---|---|---|---|---|---|
| 1777933874 | 22.22° C | 34% | 1014.6 hPa | 0 mm | - | 59 W/m² | - |
| 1777933571 | 22.22° C | 34% | 1014.8 hPa | 0 mm | - | 49 W/m² | - |
| 1777933268 | 22.22° C | 35% | 1015 hPa | 0 mm | - | 57 W/m² | - |
| 1777932965 | 22.22° C | 34% | 1014.8 hPa | 0 mm | - | 96 W/m² | - |
| 1777932662 | 22.22° C | 34% | 1014.9 hPa | 0 mm | - | 98 W/m² | - |
| 1777932358 | 22.22° C | 34% | 1014.9 hPa | 0 mm | - | 105 W/m² | - |
| 1777932055 | 22.78° C | 33% | 1014.8 hPa | 0 mm | - | 109 W/m² | - |
| 1777931752 | 23.33° C | 32% | 1014.9 hPa | 0 mm | - | 122 W/m² | - |
| 1777931450 | 22.78° C | 35% | 1014.9 hPa | 0 mm | - | 231 W/m² | - |
| 1777931145 | 23.33° C | 30% | 1014.8 hPa | 0 mm | - | 141 W/m² | - |
| 1777930842 | 23.89° C | 30% | 1014.8 hPa | 0 mm | - | 235 W/m² | - |
| 1777930538 | 23.33° C | 31% | 1014.8 hPa | 0 mm | - | 283 W/m² | - |
| 1777930236 | 23.33° C | 30% | 1014.7 hPa | 0 mm | - | 220 W/m² | - |
| 1777929931 | 22.78° C | 28% | 1014.7 hPa | 0 mm | - | 92 W/m² | - |
| 1777929629 | 23.33° C | 28% | 1014.9 hPa | 0 mm | - | 114 W/m² | - |
| 1777929326 | 23.33° C | 28% | 1014.9 hPa | 0 mm | - | 102 W/m² | - |
| 1777929023 | 23.33° C | 27% | 1014.9 hPa | 0 mm | - | 118 W/m² | - |
| 1777928719 | 22.78° C | 28% | 1014.8 hPa | 0 mm | - | 91 W/m² | - |
| 1777928416 | 22.78° C | 27% | 1014.8 hPa | 0 mm | - | 87 W/m² | - |
| 1777928114 | 23.89° C | 26% | 1014.9 hPa | 0 mm | - | 89 W/m² | - |
| 1777927812 | 23.89° C | 28% | 1015 hPa | 0 mm | - | 91 W/m² | - |
| 1777927510 | 23.33° C | 30% | 1015 hPa | 0 mm | - | 94 W/m² | - |
| 1777927209 | 23.33° C | 29% | 1015 hPa | 0 mm | - | 99 W/m² | - |
| 1777926906 | 23.33° C | 28% | 1015.1 hPa | 0 mm | - | 101 W/m² | - |
| 1777926602 | 23.33° C | 30% | 1015 hPa | 0 mm | - | 99 W/m² | - |
* Rain latest hour (hover to see other rain measurements)
** Current wind speed in m/s (hover to see current wind gust speed)